sensor_id;sensor_type;location;lat;lon;timestamp;pressure;altitude;pressure_sealevel;temperature;humidity
41686;BME280;27370;42.764;23.432;2023-11-19T00:00:20;95489.66;;;3.00;100.00
41686;BME280;27370;42.764;23.432;2023-11-19T00:02:50;95490.03;;;2.99;100.00
41686;BME280;27370;42.764;23.432;2023-11-19T00:05:18;95497.56;;;2.93;100.00
41686;BME280;27370;42.764;23.432;2023-11-19T00:07:46;95495.22;;;2.88;100.00
41686;BME280;27370;42.764;23.432;2023-11-19T00:10:14;95501.00;;;2.94;100.00
41686;BME280;27370;42.764;23.432;2023-11-19T00:12:47;95501.00;;;2.94;100.00
41686;BME280;27370;42.764;23.432;2023-11-19T00:15:16;95508.25;;;2.93;100.00
41686;BME280;27370;42.764;23.432;2023-11-19T00:17:47;95506.84;;;2.99;100.00
41686;BME280;27370;42.764;23.432;2023-11-19T00:20:16;95505.25;;;2.95;100.00
41686;BME280;27370;42.764;23.432;2023-11-19T00:22:44;95507.84;;;2.91;100.00
41686;BME280;27370;42.764;23.432;2023-11-19T00:25:17;95514.50;;;3.01;100.00
41686;BME280;27370;42.764;23.432;2023-11-19T00:27:46;95508.75;;;2.99;100.00
41686;BME280;27370;42.764;23.432;2023-11-19T00:30:13;95509.47;;;2.96;100.00
41686;BME280;27370;42.764;23.432;2023-11-19T00:32:42;95513.28;;;2.95;100.00
41686;BME280;27370;42.764;23.432;2023-11-19T00:35:10;95510.13;;;2.89;100.00
41686;BME280;27370;42.764;23.432;2023-11-19T00:37:38;95514.34;;;2.90;100.00
41686;BME280;27370;42.764;23.432;2023-11-19T00:40:08;95520.53;;;2.94;100.00
41686;BME280;27370;42.764;23.432;2023-11-19T00:42:37;95519.91;;;3.04;100.00
41686;BME280;27370;42.764;23.432;2023-11-19T00:45:04;95520.00;;;2.85;100.00
41686;BME280;27370;42.764;23.432;2023-11-19T00:47:37;95520.41;;;2.87;100.00
41686;BME280;27370;42.764;23.432;2023-11-19T00:50:04;95532.78;;;2.95;100.00
41686;BME280;27370;42.764;23.432;2023-11-19T00:52:33;95524.31;;;2.93;100.00
41686;BME280;27370;42.764;23.432;2023-11-19T00:55:01;95526.06;;;2.82;100.00
41686;BME280;27370;42.764;23.432;2023-11-19T00:57:33;95527.47;;;2.99;100.00
41686;BME280;27370;42.764;23.432;2023-11-19T01:00:05;95517.84;;;2.71;100.00
41686;BME280;27370;42.764;23.432;2023-11-19T01:02:42;95524.63;;;2.88;100.00
41686;BME280;27370;42.764;23.432;2023-11-19T01:05:10;95523.44;;;2.86;100.00
41686;BME280;27370;42.764;23.432;2023-11-19T01:07:43;95528.84;;;2.89;100.00
41686;BME280;27370;42.764;23.432;2023-11-19T01:10:13;95521.22;;;2.91;100.00
41686;BME280;27370;42.764;23.432;2023-11-19T01:12:39;95521.63;;;2.93;100.00
41686;BME280;27370;42.764;23.432;2023-11-19T01:15:06;95532.19;;;2.83;100.00
41686;BME280;27370;42.764;23.432;2023-11-19T01:17:38;95529.19;;;2.88;100.00
41686;BME280;27370;42.764;23.432;2023-11-19T01:20:11;95519.63;;;2.87;100.00
41686;BME280;27370;42.764;23.432;2023-11-19T01:22:41;95521.53;;;2.86;100.00
41686;BME280;27370;42.764;23.432;2023-11-19T01:25:14;95521.59;;;2.90;100.00
41686;BME280;27370;42.764;23.432;2023-11-19T01:27:41;95526.06;;;2.82;100.00
41686;BME280;27370;42.764;23.432;2023-11-19T01:30:10;95523.19;;;2.71;100.00
41686;BME280;27370;42.764;23.432;2023-11-19T01:32:40;95523.69;;;2.77;100.00
41686;BME280;27370;42.764;23.432;2023-11-19T01:35:09;95527.72;;;2.67;100.00
41686;BME280;27370;42.764;23.432;2023-11-19T01:37:37;95531.22;;;2.71;100.00
41686;BME280;27370;42.764;23.432;2023-11-19T01:40:04;95533.00;;;2.64;100.00
41686;BME280;27370;42.764;23.432;2023-11-19T01:42:39;95527.84;;;2.74;100.00
41686;BME280;27370;42.764;23.432;2023-11-19T01:45:08;95519.75;;;2.71;100.00
41686;BME280;27370;42.764;23.432;2023-11-19T01:47:36;95536.56;;;2.49;100.00
41686;BME280;27370;42.764;23.432;2023-11-19T01:50:06;95534.03;;;2.56;100.00
41686;BME280;27370;42.764;23.432;2023-11-19T01:52:35;95533.72;;;2.61;100.00
41686;BME280;27370;42.764;23.432;2023-11-19T01:55:04;95533.31;;;2.59;100.00
41686;BME280;27370;42.764;23.432;2023-11-19T01:57:32;95535.28;;;2.62;100.00
41686;BME280;27370;42.764;23.432;2023-11-19T01:59:59;95536.56;;;2.49;100.00
41686;BME280;27370;42.764;23.432;2023-11-19T02:02:41;95541.44;;;2.66;100.00
41686;BME280;27370;42.764;23.432;2023-11-19T02:05:10;95547.25;;;2.49;100.00
41686;BME280;27370;42.764;23.432;2023-11-19T02:07:37;95546.22;;;2.53;100.00
41686;BME280;27370;42.764;23.432;2023-11-19T02:10:04;95527.09;;;2.51;100.00
41686;BME280;27370;42.764;23.432;2023-11-19T02:12:33;95518.03;;;2.36;100.00
41686;BME280;27370;42.764;23.432;2023-11-19T02:14:59;95511.88;;;2.32;100.00
41686;BME280;27370;42.764;23.432;2023-11-19T02:17:27;95511.03;;;2.28;100.00
41686;BME280;27370;42.764;23.432;2023-11-19T02:19:55;95519.72;;;2.25;100.00
41686;BME280;27370;42.764;23.432;2023-11-19T02:22:22;95509.25;;;2.36;100.00
41686;BME280;27370;42.764;23.432;2023-11-19T02:24:54;95499.63;;;2.31;100.00
41686;BME280;27370;42.764;23.432;2023-11-19T02:30:04;95510.28;;;2.08;100.00
41686;BME280;27370;42.764;23.432;2023-11-19T02:32:34;95522.22;;;2.14;100.00
41686;BME280;27370;42.764;23.432;2023-11-19T02:35:03;95524.19;;;1.98;100.00
41686;BME280;27370;42.764;23.432;2023-11-19T02:37:38;95511.25;;;2.00;100.00
41686;BME280;27370;42.764;23.432;2023-11-19T02:40:07;95509.94;;;2.10;100.00
41686;BME280;27370;42.764;23.432;2023-11-19T02:42:35;95524.00;;;2.07;100.00
41686;BME280;27370;42.764;23.432;2023-11-19T02:45:03;95522.03;;;2.04;100.00
41686;BME280;27370;42.764;23.432;2023-11-19T02:47:32;95514.28;;;1.99;100.00
41686;BME280;27370;42.764;23.432;2023-11-19T02:49:59;95523.13;;;2.03;100.00
41686;BME280;27370;42.764;23.432;2023-11-19T02:52:33;95528.22;;;2.08;100.00
41686;BME280;27370;42.764;23.432;2023-11-19T02:55:05;95539.44;;;1.98;100.00
41686;BME280;27370;42.764;23.432;2023-11-19T02:57:39;95539.25;;;2.06;100.00
41686;BME280;27370;42.764;23.432;2023-11-19T03:00:17;95525.81;;;2.03;100.00
41686;BME280;27370;42.764;23.432;2023-11-19T03:02:46;95534.31;;;2.08;100.00
41686;BME280;27370;42.764;23.432;2023-11-19T03:05:18;95546.47;;;2.06;100.00
41686;BME280;27370;42.764;23.432;2023-11-19T03:07:49;95546.31;;;1.99;100.00
41686;BME280;27370;42.764;23.432;2023-11-19T03:10:15;95545.00;;;2.08;100.00
41686;BME280;27370;42.764;23.432;2023-11-19T03:12:44;95553.28;;;2.03;100.00
41686;BME280;27370;42.764;23.432;2023-11-19T03:15:16;95565.72;;;1.96;100.00
41686;BME280;27370;42.764;23.432;2023-11-19T03:17:44;95562.09;;;2.04;100.00
41686;BME280;27370;42.764;23.432;2023-11-19T03:20:12;95555.47;;;1.98;100.00
41686;BME280;27370;42.764;23.432;2023-11-19T03:22:44;95552.66;;;2.10;100.00
41686;BME280;27370;42.764;23.432;2023-11-19T03:25:12;95563.34;;;2.10;100.00
41686;BME280;27370;42.764;23.432;2023-11-19T03:27:40;95551.97;;;2.13;100.00
41686;BME280;27370;42.764;23.432;2023-11-19T03:30:08;95550.75;;;2.10;100.00
41686;BME280;27370;42.764;23.432;2023-11-19T03:32:40;95540.09;;;2.10;100.00
41686;BME280;27370;42.764;23.432;2023-11-19T03:35:09;95560.25;;;2.08;100.00
41686;BME280;27370;42.764;23.432;2023-11-19T03:37:39;95566.72;;;2.07;100.00
41686;BME280;27370;42.764;23.432;2023-11-19T03:40:06;95561.16;;;2.15;100.00
41686;BME280;27370;42.764;23.432;2023-11-19T03:42:36;95567.97;;;2.13;100.00
41686;BME280;27370;42.764;23.432;2023-11-19T03:45:06;95574.09;;;2.13;100.00
41686;BME280;27370;42.764;23.432;2023-11-19T03:47:39;95576.41;;;2.15;100.00
41686;BME280;27370;42.764;23.432;2023-11-19T03:50:06;95593.16;;;2.12;100.00
41686;BME280;27370;42.764;23.432;2023-11-19T03:52:36;95595.66;;;2.24;100.00
41686;BME280;27370;42.764;23.432;2023-11-19T03:55:05;95605.09;;;2.18;100.00
41686;BME280;27370;42.764;23.432;2023-11-19T03:57:35;95589.13;;;2.02;100.00
41686;BME280;27370;42.764;23.432;2023-11-19T04:00:05;95595.94;;;2.19;100.00
41686;BME280;27370;42.764;23.432;2023-11-19T04:02:40;95590.31;;;2.24;100.00
41686;BME280;27370;42.764;23.432;2023-11-19T04:05:08;95592.56;;;2.22;100.00
41686;BME280;27370;42.764;23.432;2023-11-19T04:07:37;95592.22;;;2.24;100.00
41686;BME280;27370;42.764;23.432;2023-11-19T04:10:05;95591.59;;;2.30;100.00
41686;BME280;27370;42.764;23.432;2023-11-19T04:12:33;95593.41;;;2.26;100.00
41686;BME280;27370;42.764;23.432;2023-11-19T04:14:59;95600.66;;;2.26;100.00
41686;BME280;27370;42.764;23.432;2023-11-19T04:17:28;95603.25;;;2.22;100.00
41686;BME280;27370;42.764;23.432;2023-11-19T04:19:57;95609.09;;;2.28;100.00
41686;BME280;27370;42.764;23.432;2023-11-19T04:22:27;95610.78;;;2.17;100.00
41686;BME280;27370;42.764;23.432;2023-11-19T04:24:55;95606.97;;;1.98;100.00
41686;BME280;27370;42.764;23.432;2023-11-19T04:27:23;95594.63;;;2.09;100.00
41686;BME280;27370;42.764;23.432;2023-11-19T04:29:51;95597.38;;;2.13;100.00
41686;BME280;27370;42.764;23.432;2023-11-19T04:32:21;95610.59;;;2.06;100.00
41686;BME280;27370;42.764;23.432;2023-11-19T04:34:50;95610.72;;;2.13;100.00
41686;BME280;27370;42.764;23.432;2023-11-19T04:37:19;95615.16;;;2.05;100.00
41686;BME280;27370;42.764;23.432;2023-11-19T04:39:47;95624.34;;;2.08;100.00
41686;BME280;27370;42.764;23.432;2023-11-19T04:42:15;95621.09;;;1.99;100.00
41686;BME280;27370;42.764;23.432;2023-11-19T04:44:44;95626.25;;;2.07;100.00
41686;BME280;27370;42.764;23.432;2023-11-19T04:47:13;95620.22;;;2.10;100.00
41686;BME280;27370;42.764;23.432;2023-11-19T04:49:42;95622.88;;;2.10;100.00
41686;BME280;27370;42.764;23.432;2023-11-19T04:52:10;95629.25;;;2.25;100.00
41686;BME280;27370;42.764;23.432;2023-11-19T04:54:43;95632.44;;;2.11;100.00
41686;BME280;27370;42.764;23.432;2023-11-19T04:57:10;95629.47;;;1.97;100.00
41686;BME280;27370;42.764;23.432;2023-11-19T04:59:40;95642.34;;;2.11;100.00
41686;BME280;27370;42.764;23.432;2023-11-19T05:02:09;95643.59;;;2.17;100.00
41686;BME280;27370;42.764;23.432;2023-11-19T05:04:37;95646.00;;;2.22;100.00
41686;BME280;27370;42.764;23.432;2023-11-19T05:07:12;95638.91;;;2.30;100.00
41686;BME280;27370;42.764;23.432;2023-11-19T05:09:44;95658.50;;;2.18;100.00
41686;BME280;27370;42.764;23.432;2023-11-19T05:12:12;95658.50;;;2.18;100.00
41686;BME280;27370;42.764;23.432;2023-11-19T05:14:39;95663.50;;;2.20;100.00
41686;BME280;27370;42.764;23.432;2023-11-19T05:17:05;95648.25;;;2.20;100.00
41686;BME280;27370;42.764;23.432;2023-11-19T05:19:35;95649.59;;;2.30;100.00
41686;BME280;27370;42.764;23.432;2023-11-19T05:22:06;95653.22;;;2.22;100.00
41686;BME280;27370;42.764;23.432;2023-11-19T05:24:36;95645.84;;;2.15;100.00
41686;BME280;27370;42.764;23.432;2023-11-19T05:27:07;95653.31;;;2.06;100.00
41686;BME280;27370;42.764;23.432;2023-11-19T05:29:37;95651.97;;;2.15;100.00
41686;BME280;27370;42.764;23.432;2023-11-19T05:32:12;95652.88;;;2.04;100.00
41686;BME280;27370;42.764;23.432;2023-11-19T05:34:43;95655.63;;;2.07;100.00
41686;BME280;27370;42.764;23.432;2023-11-19T05:37:13;95674.16;;;2.00;100.00
41686;BME280;27370;42.764;23.432;2023-11-19T05:39:47;95666.03;;;2.12;100.00
41686;BME280;27370;42.764;23.432;2023-11-19T05:42:18;95673.97;;;2.09;100.00
41686;BME280;27370;42.764;23.432;2023-11-19T05:44:45;95674.31;;;2.07;100.00
41686;BME280;27370;42.764;23.432;2023-11-19T05:47:16;95677.00;;;2.07;100.00
41686;BME280;27370;42.764;23.432;2023-11-19T05:49:47;95677.78;;;2.08;100.00
41686;BME280;27370;42.764;23.432;2023-11-19T05:52:18;95673.97;;;2.09;100.00
41686;BME280;27370;42.764;23.432;2023-11-19T05:54:51;95678.47;;;2.05;100.00
41686;BME280;27370;42.764;23.432;2023-11-19T05:57:20;95680.78;;;2.06;100.00
41686;BME280;27370;42.764;23.432;2023-11-19T05:59:51;95682.41;;;2.11;100.00
41686;BME280;27370;42.764;23.432;2023-11-19T06:02:26;95696.88;;;2.10;100.00
41686;BME280;27370;42.764;23.432;2023-11-19T06:04:55;95702.66;;;2.12;100.00
41686;BME280;27370;42.764;23.432;2023-11-19T06:07:26;95708.75;;;2.12;100.00
41686;BME280;27370;42.764;23.432;2023-11-19T06:09:56;95706.09;;;2.12;100.00
41686;BME280;27370;42.764;23.432;2023-11-19T06:12:24;95704.13;;;2.09;100.00
41686;BME280;27370;42.764;23.432;2023-11-19T06:14:52;95712.06;;;2.06;100.00
41686;BME280;27370;42.764;23.432;2023-11-19T06:17:20;95704.19;;;2.13;100.00
41686;BME280;27370;42.764;23.432;2023-11-19T06:19:49;95687.75;;;2.11;100.00
41686;BME280;27370;42.764;23.432;2023-11-19T06:22:16;95693.44;;;2.09;100.00
41686;BME280;27370;42.764;23.432;2023-11-19T06:24:43;95689.22;;;2.08;100.00
41686;BME280;27370;42.764;23.432;2023-11-19T06:27:11;95701.06;;;1.92;100.00
41686;BME280;27370;42.764;23.432;2023-11-19T06:29:39;95696.88;;;2.10;100.00
41686;BME280;27370;42.764;23.432;2023-11-19T06:32:10;95704.41;;;2.04;100.00
41686;BME280;27370;42.764;23.432;2023-11-19T06:34:38;95698.97;;;2.01;100.00
41686;BME280;27370;42.764;23.432;2023-11-19T06:37:07;95700.22;;;1.88;100.00
41686;BME280;27370;42.764;23.432;2023-11-19T06:39:37;95705.91;;;1.86;100.00
41686;BME280;27370;42.764;23.432;2023-11-19T06:42:06;95713.63;;;1.91;100.00
41686;BME280;27370;42.764;23.432;2023-11-19T06:44:36;95710.81;;;1.84;100.00
41686;BME280;27370;42.764;23.432;2023-11-19T06:47:05;95713.13;;;1.86;100.00
41686;BME280;27370;42.764;23.432;2023-11-19T06:49:34;95714.97;;;2.01;100.00
41686;BME280;27370;42.764;23.432;2023-11-19T06:52:03;95707.66;;;1.98;100.00
41686;BME280;27370;42.764;23.432;2023-11-19T06:54:32;95709.41;;;1.90;100.00
41686;BME280;27370;42.764;23.432;2023-11-19T06:57:01;95709.84;;;1.92;100.00
41686;BME280;27370;42.764;23.432;2023-11-19T06:59:30;95714.75;;;1.90;100.00
41686;BME280;27370;42.764;23.432;2023-11-19T07:01:58;95719.13;;;1.98;100.00
41686;BME280;27370;42.764;23.432;2023-11-19T07:04:29;95715.94;;;2.08;100.00
41686;BME280;27370;42.764;23.432;2023-11-19T07:07:01;95711.38;;;2.09;100.00
41686;BME280;27370;42.764;23.432;2023-11-19T07:09:29;95725.00;;;2.04;100.00
41686;BME280;27370;42.764;23.432;2023-11-19T07:11:57;95714.47;;;2.11;100.00
41686;BME280;27370;42.764;23.432;2023-11-19T07:14:26;95706.31;;;2.23;100.00
41686;BME280;27370;42.764;23.432;2023-11-19T07:16:55;95719.88;;;2.14;100.00
41686;BME280;27370;42.764;23.432;2023-11-19T07:19:25;95716.75;;;2.28;100.00
41686;BME280;27370;42.764;23.432;2023-11-19T07:21:54;95723.88;;;2.24;100.00
41686;BME280;27370;42.764;23.432;2023-11-19T07:24:24;95722.44;;;2.27;100.00
41686;BME280;27370;42.764;23.432;2023-11-19T07:26:57;95721.91;;;2.21;100.00
41686;BME280;27370;42.764;23.432;2023-11-19T07:29:25;95724.06;;;2.31;100.00
41686;BME280;27370;42.764;23.432;2023-11-19T07:31:56;95733.16;;;2.11;100.00
41686;BME280;27370;42.764;23.432;2023-11-19T07:34:25;95740.19;;;2.19;100.00
41686;BME280;27370;42.764;23.432;2023-11-19T07:36:54;95745.69;;;2.26;100.00
41686;BME280;27370;42.764;23.432;2023-11-19T07:39:28;95739.78;;;2.17;100.00
41686;BME280;27370;42.764;23.432;2023-11-19T07:41:59;95748.56;;;2.18;100.00
41686;BME280;27370;42.764;23.432;2023-11-19T07:44:31;95763.88;;;2.21;100.00
41686;BME280;27370;42.764;23.432;2023-11-19T07:47:00;95750.66;;;1.93;100.00
41686;BME280;27370;42.764;23.432;2023-11-19T07:49:30;95745.66;;;2.07;100.00
41686;BME280;27370;42.764;23.432;2023-11-19T07:51:59;95742.63;;;2.08;100.00
41686;BME280;27370;42.764;23.432;2023-11-19T07:54:30;95760.72;;;2.15;100.00
41686;BME280;27370;42.764;23.432;2023-11-19T07:56:58;95754.31;;;2.20;100.00
41686;BME280;27370;42.764;23.432;2023-11-19T07:59:27;95747.50;;;2.22;100.00
41686;BME280;27370;42.764;23.432;2023-11-19T08:01:56;95743.88;;;2.30;100.00
41686;BME280;27370;42.764;23.432;2023-11-19T08:04:26;95760.84;;;2.38;100.00
41686;BME280;27370;42.764;23.432;2023-11-19T08:07:00;95769.47;;;2.31;100.00
41686;BME280;27370;42.764;23.432;2023-11-19T08:09:28;95761.84;;;2.14;100.00
41686;BME280;27370;42.764;23.432;2023-11-19T08:11:56;95755.41;;;2.34;100.00
41686;BME280;27370;42.764;23.432;2023-11-19T08:14:25;95763.72;;;2.49;100.00
41686;BME280;27370;42.764;23.432;2023-11-19T08:16:54;95777.53;;;2.51;100.00
41686;BME280;27370;42.764;23.432;2023-11-19T08:19:32;95781.22;;;2.46;100.00
41686;BME280;27370;42.764;23.432;2023-11-19T08:22:02;95782.00;;;2.46;100.00
41686;BME280;27370;42.764;23.432;2023-11-19T08:24:31;95769.50;;;2.51;100.00
41686;BME280;27370;42.764;23.432;2023-11-19T08:26:59;95774.00;;;2.46;100.00
41686;BME280;27370;42.764;23.432;2023-11-19T08:29:27;95779.09;;;2.52;100.00
41686;BME280;27370;42.764;23.432;2023-11-19T08:31:57;95779.88;;;2.36;100.00
41686;BME280;27370;42.764;23.432;2023-11-19T08:34:26;95766.53;;;2.36;100.00
41686;BME280;27370;42.764;23.432;2023-11-19T08:36:59;95784.22;;;2.25;100.00
41686;BME280;27370;42.764;23.432;2023-11-19T08:42:27;95797.41;;;2.34;100.00
41686;BME280;27370;42.764;23.432;2023-11-19T08:44:57;95788.47;;;2.45;100.00
41686;BME280;27370;42.764;23.432;2023-11-19T08:47:26;95792.13;;;2.37;100.00
41686;BME280;27370;42.764;23.432;2023-11-19T08:49:54;95789.59;;;2.44;100.00
41686;BME280;27370;42.764;23.432;2023-11-19T08:52:23;95785.09;;;2.49;100.00
41686;BME280;27370;42.764;23.432;2023-11-19T08:55:02;95794.91;;;2.60;100.00
41686;BME280;27370;42.764;23.432;2023-11-19T08:57:33;95803.78;;;2.64;100.00
41686;BME280;27370;42.764;23.432;2023-11-19T09:00:07;95789.34;;;2.50;100.00
41686;BME280;27370;42.764;23.432;2023-11-19T09:02:38;95781.81;;;2.55;100.00
41686;BME280;27370;42.764;23.432;2023-11-19T09:05:08;95777.25;;;2.56;100.00
41686;BME280;27370;42.764;23.432;2023-11-19T09:07:38;95777.44;;;2.47;100.00
41686;BME280;27370;42.764;23.432;2023-11-19T09:10:08;95769.03;;;2.64;100.00
41686;BME280;27370;42.764;23.432;2023-11-19T09:12:36;95762.41;;;2.58;100.00
41686;BME280;27370;42.764;23.432;2023-11-19T09:15:05;95760.94;;;2.80;100.00
41686;BME280;27370;42.764;23.432;2023-11-19T09:17:34;95760.09;;;2.76;100.00
41686;BME280;27370;42.764;23.432;2023-11-19T09:20:22;95776.91;;;2.76;100.00
41686;BME280;27370;42.764;23.432;2023-11-19T09:22:50;95788.03;;;2.79;100.00
41686;BME280;27370;42.764;23.432;2023-11-19T09:25:20;95786.97;;;2.83;100.00
41686;BME280;27370;42.764;23.432;2023-11-19T09:27:48;95799.63;;;2.67;100.00
41686;BME280;27370;42.764;23.432;2023-11-19T09:30:18;95794.44;;;2.74;100.00
41686;BME280;27370;42.764;23.432;2023-11-19T09:32:48;95781.44;;;2.72;100.00
41686;BME280;27370;42.764;23.432;2023-11-19T09:35:15;95789.16;;;2.78;100.00
41686;BME280;27370;42.764;23.432;2023-11-19T09:37:53;95776.22;;;2.80;100.00
41686;BME280;27370;42.764;23.432;2023-11-19T09:40:21;95766.28;;;2.80;100.00
41686;BME280;27370;42.764;23.432;2023-11-19T09:42:50;95758.03;;;2.69;100.00
41686;BME280;27370;42.764;23.432;2023-11-19T09:45:22;95755.88;;;2.56;100.00
41686;BME280;27370;42.764;23.432;2023-11-19T09:48:00;95747.16;;;2.78;100.00
41686;BME280;27370;42.764;23.432;2023-11-19T09:50:31;95734.19;;;2.99;100.00
41686;BME280;27370;42.764;23.432;2023-11-19T09:53:00;95728.91;;;3.03;100.00
41686;BME280;27370;42.764;23.432;2023-11-19T09:55:30;95730.81;;;3.02;100.00
41686;BME280;27370;42.764;23.432;2023-11-19T09:58:00;95732.00;;;2.86;100.00
41686;BME280;27370;42.764;23.432;2023-11-19T10:00:30;95732.28;;;3.00;100.00
41686;BME280;27370;42.764;23.432;2023-11-19T10:02:58;95723.53;;;3.22;100.00
41686;BME280;27370;42.764;23.432;2023-11-19T10:05:27;95720.16;;;3.06;100.00
41686;BME280;27370;42.764;23.432;2023-11-19T10:07:58;95718.03;;;3.15;100.00
41686;BME280;27370;42.764;23.432;2023-11-19T10:10:27;95727.69;;;3.20;100.00
41686;BME280;27370;42.764;23.432;2023-11-19T10:12:56;95721.63;;;3.23;100.00
41686;BME280;27370;42.764;23.432;2023-11-19T10:15:25;95728.19;;;3.06;100.00
41686;BME280;27370;42.764;23.432;2023-11-19T10:17:59;95732.19;;;3.16;100.00
41686;BME280;27370;42.764;23.432;2023-11-19T10:20:28;95730.94;;;3.10;100.00
41686;BME280;27370;42.764;23.432;2023-11-19T10:22:57;95737.69;;;3.23;100.00
41686;BME280;27370;42.764;23.432;2023-11-19T10:25:27;95731.50;;;3.42;100.00
41686;BME280;27370;42.764;23.432;2023-11-19T10:27:56;95729.47;;;3.35;100.00
41686;BME280;27370;42.764;23.432;2023-11-19T10:30:27;95721.59;;;3.42;100.00
41686;BME280;27370;42.764;23.432;2023-11-19T10:33:13;95716.50;;;3.37;100.00
41686;BME280;27370;42.764;23.432;2023-11-19T10:35:51;95710.09;;;3.42;100.00
41686;BME280;27370;42.764;23.432;2023-11-19T10:38:24;95714.69;;;3.41;100.00
41686;BME280;27370;42.764;23.432;2023-11-19T10:40:55;95708.72;;;3.51;100.00
41686;BME280;27370;42.764;23.432;2023-11-19T10:43:22;95712.41;;;3.66;100.00
41686;BME280;27370;42.764;23.432;2023-11-19T10:45:51;95711.56;;;3.85;100.00
41686;BME280;27370;42.764;23.432;2023-11-19T10:48:19;95712.63;;;3.80;100.00
41686;BME280;27370;42.764;23.432;2023-11-19T10:50:54;95721.38;;;3.77;100.00
41686;BME280;27370;42.764;23.432;2023-11-19T10:53:23;95711.81;;;4.03;100.00
41686;BME280;27370;42.764;23.432;2023-11-19T10:55:57;95728.28;;;3.78;100.00
41686;BME280;27370;42.764;23.432;2023-11-19T10:58:29;95729.22;;;3.89;100.00
41686;BME280;27370;42.764;23.432;2023-11-19T11:01:02;95724.41;;;3.76;100.00
41686;BME280;27370;42.764;23.432;2023-11-19T11:03:39;95705.88;;;3.63;100.00
41686;BME280;27370;42.764;23.432;2023-11-19T11:06:08;95705.22;;;3.47;100.00
41686;BME280;27370;42.764;23.432;2023-11-19T11:08:37;95694.09;;;3.94;100.00
41686;BME280;27370;42.764;23.432;2023-11-19T11:11:08;95695.63;;;3.95;100.00
41686;BME280;27370;42.764;23.432;2023-11-19T11:13:43;95691.00;;;3.92;100.00
41686;BME280;27370;42.764;23.432;2023-11-19T11:16:14;95687.38;;;3.81;100.00
41686;BME280;27370;42.764;23.432;2023-11-19T11:18:45;95682.91;;;3.62;100.00
41686;BME280;27370;42.764;23.432;2023-11-19T11:21:19;95684.59;;;3.74;100.00
41686;BME280;27370;42.764;23.432;2023-11-19T11:24:28;95681.63;;;3.79;100.00
41686;BME280;27370;42.764;23.432;2023-11-19T11:27:25;95693.09;;;3.80;100.00
41686;BME280;27370;42.764;23.432;2023-11-19T11:33:21;95685.13;;;3.83;100.00
41686;BME280;27370;42.764;23.432;2023-11-19T11:36:19;95701.66;;;3.89;100.00
41686;BME280;27370;42.764;23.432;2023-11-19T11:38:50;95695.22;;;3.93;100.00
41686;BME280;27370;42.764;23.432;2023-11-19T11:41:22;95696.72;;;3.91;100.00
41686;BME280;27370;42.764;23.432;2023-11-19T11:43:52;95686.38;;;3.89;100.00
41686;BME280;27370;42.764;23.432;2023-11-19T11:49:07;95673.34;;;3.88;100.00
41686;BME280;27370;42.764;23.432;2023-11-19T11:57:13;95679.22;;;4.27;100.00
41686;BME280;27370;42.764;23.432;2023-11-19T11:59:49;95687.56;;;4.22;100.00
41686;BME280;27370;42.764;23.432;2023-11-19T12:02:19;95681.00;;;4.16;100.00
41686;BME280;27370;42.764;23.432;2023-11-19T12:04:51;95676.91;;;4.25;100.00
41686;BME280;27370;42.764;23.432;2023-11-19T12:07:25;95671.19;;;4.27;100.00
41686;BME280;27370;42.764;23.432;2023-11-19T12:10:06;95671.44;;;4.18;100.00
41686;BME280;27370;42.764;23.432;2023-11-19T12:12:36;95665.47;;;4.02;100.00
41686;BME280;27370;42.764;23.432;2023-11-19T12:15:09;95659.91;;;4.14;100.00
41686;BME280;27370;42.764;23.432;2023-11-19T12:17:46;95649.69;;;4.23;100.00
41686;BME280;27370;42.764;23.432;2023-11-19T12:20:19;95641.84;;;4.75;100.00
41686;BME280;27370;42.764;23.432;2023-11-19T12:22:55;95635.28;;;5.06;100.00
41686;BME280;27370;42.764;23.432;2023-11-19T12:25:23;95628.78;;;5.07;100.00
41686;BME280;27370;42.764;23.432;2023-11-19T12:27:54;95628.47;;;5.19;100.00
41686;BME280;27370;42.764;23.432;2023-11-19T12:30:26;95635.53;;;5.34;100.00
41686;BME280;27370;42.764;23.432;2023-11-19T12:32:55;95638.91;;;5.24;100.00
41686;BME280;27370;42.764;23.432;2023-11-19T12:35:26;95634.41;;;4.95;100.00
41686;BME280;27370;42.764;23.432;2023-11-19T12:37:57;95626.31;;;4.54;100.00
41686;BME280;27370;42.764;23.432;2023-11-19T12:40:29;95617.03;;;4.48;100.00
41686;BME280;27370;42.764;23.432;2023-11-19T12:42:59;95617.81;;;4.82;100.00
41686;BME280;27370;42.764;23.432;2023-11-19T12:45:37;95617.31;;;5.13;100.00
41686;BME280;27370;42.764;23.432;2023-11-19T12:48:10;95611.09;;;5.46;100.00
41686;BME280;27370;42.764;23.432;2023-11-19T12:50:57;95611.13;;;5.53;100.00
41686;BME280;27370;42.764;23.432;2023-11-19T12:53:24;95616.41;;;5.43;100.00
41686;BME280;27370;42.764;23.432;2023-11-19T13:28:52;95560.69;;;5.26;100.00
41686;BME280;27370;42.764;23.432;2023-11-19T13:31:18;95562.88;;;5.13;100.00
41686;BME280;27370;42.764;23.432;2023-11-19T13:33:44;95561.81;;;4.77;100.00
41686;BME280;27370;42.764;23.432;2023-11-19T13:36:09;95570.53;;;4.70;100.00
41686;BME280;27370;42.764;23.432;2023-11-19T13:38:35;95569.09;;;4.76;100.00
41686;BME280;27370;42.764;23.432;2023-11-19T13:41:01;95564.13;;;4.78;100.00
41686;BME280;27370;42.764;23.432;2023-11-19T13:43:27;95571.69;;;4.69;100.00
41686;BME280;27370;42.764;23.432;2023-11-19T13:45:54;95569.41;;;4.71;100.00
41686;BME280;27370;42.764;23.432;2023-11-19T13:48:20;95577.22;;;4.50;100.00
41686;BME280;27370;42.764;23.432;2023-11-19T13:50:47;95568.81;;;4.51;100.00
41686;BME280;27370;42.764;23.432;2023-11-19T13:53:12;95585.19;;;4.39;100.00
41686;BME280;27370;42.764;23.432;2023-11-19T13:55:38;95580.59;;;4.40;100.00